Coronel Barros, Brazil
Current Conditions -  °F | °C
As of 1:00 PM on Saturday 25 Oct 2014 (Local Time) from SBSM Reporting Station
Broken Clouds Broken Clouds  
Wind Chill: 75°   Ceiling: 2200
Heat Index: 75°   Visibility: 6mi
Dew Point: 64°   Wind: 9mph
Humidity: 69%   Direction: 120°ESE
Pressure: 29.94"   Gusts: NA
Location:  28.38°S, 54.07°W
Report Text: SBSM 251500Z 12008KT 090V160 9999 BKN022 24/18 Q1014
Loading
Personal Weather Stations






























Interactive Weather Map
Tropical Storm Tracking
New forecast layout! Learn more

10-Day Weather Forecast

Advertisements
Track Severe Weather on mobile